Time;durP1;ratioP1;P1;durP2;ratioP2;P2;SDS_P1;SDS_P2;PMS_P1;PMS_P2;Temp;Humidity;BMP_temperature;BMP_pressure;BME280_temperature;BME280_humidity;BME280_pressure;Samples;Min_cycle;Max_cycle;Signal;HPM_P1;HPM_P2
2021/07/23 00:00:02;;;;;;;12.93;6.50;;;19.90;81.40;;;;;;5066508;28;20206;-65
2021/07/23 00:02:31;;;;;;;12.40;5.80;;;19.90;81.50;;;;;;5069763;28;20556;-65
2021/07/23 00:04:58;;;;;;;15.32;6.78;;;19.90;81.70;;;;;;5065141;28;20204;-66
2021/07/23 00:07:26;;;;;;;11.15;6.03;;;19.90;81.90;;;;;;5067637;28;20742;-64
2021/07/23 00:09:53;;;;;;;13.32;6.57;;;19.80;82.10;;;;;;5067679;28;20207;-67
2021/07/23 00:12:20;;;;;;;13.02;6.85;;;19.80;82.40;;;;;;5068403;28;20199;-66
2021/07/23 00:14:47;;;;;;;13.93;6.63;;;19.70;82.70;;;;;;5049688;28;20207;-66
2021/07/23 00:17:14;;;;;;;11.68;6.88;;;19.70;83.10;;;;;;5064944;28;20255;-65
2021/07/23 00:19:40;;;;;;;13.77;6.45;;;19.70;83.30;;;;;;5067400;28;20244;-65
2021/07/23 00:22:07;;;;;;;14.82;6.93;;;19.70;83.50;;;;;;5067762;28;20226;-65
2021/07/23 00:24:35;;;;;;;11.50;6.63;;;19.60;83.80;;;;;;5067730;28;20540;-66
2021/07/23 00:27:02;;;;;;;12.77;7.13;;;19.60;84.00;;;;;;5068476;28;20240;-66
2021/07/23 00:29:29;;;;;;;13.63;6.97;;;19.50;84.00;;;;;;5050814;28;20210;-65
2021/07/23 00:31:56;;;;;;;12.73;6.90;;;19.50;84.30;;;;;;5068373;28;20210;-64
2021/07/23 00:34:23;;;;;;;11.93;6.85;;;19.50;84.40;;;;;;5064355;28;20232;-66
2021/07/23 00:36:50;;;;;;;14.13;6.80;;;19.50;84.60;;;;;;5052988;28;20203;-66
2021/07/23 00:39:17;;;;;;;11.73;7.53;;;19.40;84.70;;;;;;5064666;28;20199;-65
2021/07/23 00:41:45;;;;;;;12.63;7.03;;;19.40;84.90;;;;;;5050015;28;20214;-66
2021/07/23 00:44:13;;;;;;;13.98;6.82;;;19.40;85.10;;;;;;5065709;28;20244;-66
2021/07/23 00:46:41;;;;;;;12.57;6.90;;;19.40;85.20;;;;;;5067355;28;20191;-65
2021/07/23 00:49:08;;;;;;;11.63;7.25;;;19.40;85.50;;;;;;5064110;28;20675;-65
2021/07/23 00:51:35;;;;;;;12.88;7.25;;;19.30;85.60;;;;;;5060496;28;20218;-66
2021/07/23 00:54:05;;;;;;;16.40;7.47;;;19.30;85.90;;;;;;5049893;28;20229;-65
2021/07/23 00:56:33;;;;;;;12.80;7.22;;;19.30;86.00;;;;;;5047249;28;20298;-65
2021/07/23 00:59:02;;;;;;;12.45;7.53;;;19.20;86.20;;;;;;5044701;28;20203;-65
2021/07/23 01:01:30;;;;;;;13.07;7.40;;;19.20;86.50;;;;;;5062564;28;20214;-65
2021/07/23 01:03:57;;;;;;;11.40;7.63;;;19.20;86.80;;;;;;5061433;28;20217;-65
2021/07/23 01:06:24;;;;;;;13.57;7.80;;;19.20;87.10;;;;;;5062284;28;20194;-65
2021/07/23 01:08:51;;;;;;;12.20;7.43;;;19.20;87.40;;;;;;5062816;28;20206;-66
2021/07/23 01:11:22;;;;;;;13.15;7.53;;;19.20;87.60;;;;;;5053315;28;20191;-66
2021/07/23 01:14:13;;;;;;;13.43;6.82;;;19.20;87.80;;;;;;5057168;28;20298;-66
2021/07/23 01:16:40;;;;;;;12.32;7.18;;;19.20;88.00;;;;;;5065882;28;20203;-65
2021/07/23 01:19:10;;;;;;;12.60;7.50;;;19.20;88.10;;;;;;5066094;28;20210;-66
2021/07/23 01:21:42;;;;;;;12.13;6.65;;;19.20;88.20;;;;;;5048051;28;20567;-67
2021/07/23 01:24:13;;;;;;;13.40;6.53;;;19.20;88.30;;;;;;5052490;28;20313;-65
2021/07/23 01:26:50;;;;;;;15.23;7.38;;;19.30;88.40;;;;;;5063131;28;20203;-67
2021/07/23 01:29:37;;;;;;;10.45;7.20;;;19.30;88.40;;;;;;5063885;28;20207;-67
2021/07/23 01:32:05;;;;;;;12.20;7.50;;;19.30;88.40;;;;;;5045902;28;20295;-66
2021/07/23 01:34:32;;;;;;;11.25;6.80;;;19.40;88.50;;;;;;5064854;28;20259;-65
2021/07/23 01:36:59;;;;;;;12.48;6.07;;;19.40;88.60;;;;;;5062046;28;20582;-66
2021/07/23 01:39:28;;;;;;;11.13;6.40;;;19.40;88.70;;;;;;5047473;28;20206;-66
2021/07/23 01:41:55;;;;;;;10.95;5.82;;;19.50;88.80;;;;;;5062688;28;20226;-67
2021/07/23 01:44:22;;;;;;;8.57;5.30;;;19.50;88.70;;;;;;5051711;28;20276;-66
2021/07/23 01:46:49;;;;;;;11.77;6.03;;;19.50;88.70;;;;;;5045396;28;20579;-67
2021/07/23 01:49:17;;;;;;;9.05;6.00;;;19.60;88.70;;;;;;5067827;28;20203;-65
2021/07/23 01:51:44;;;;;;;9.48;5.78;;;19.60;88.80;;;;;;5049533;28;20195;-66
2021/07/23 01:54:39;;;;;;;10.02;6.03;;;19.70;88.90;;;;;;5064888;28;20340;-66
2021/07/23 01:57:07;;;;;;;10.80;6.00;;;19.70;88.90;;;;;;5048137;28;20211;-65
2021/07/23 01:59:39;;;;;;;11.13;6.35;;;19.70;88.90;;;;;;5045942;28;20845;-66
2021/07/23 02:02:06;;;;;;;13.20;6.43;;;19.70;88.80;;;;;;5064377;28;20226;-66
2021/07/23 02:04:40;;;;;;;11.00;6.60;;;19.70;88.90;;;;;;5049338;28;20323;-65
2021/07/23 02:07:07;;;;;;;8.75;5.85;;;19.80;88.90;;;;;;5065651;28;20309;-65
2021/07/23 02:09:34;;;;;;;9.90;6.22;;;19.80;89.00;;;;;;5067606;28;20547;-66
2021/07/23 02:12:02;;;;;;;10.10;5.90;;;19.80;88.90;;;;;;5065167;28;20190;-65
2021/07/23 02:14:57;;;;;;;9.85;6.55;;;19.80;89.00;;;;;;5048798;28;20281;-65
2021/07/23 02:17:27;;;;;;;8.98;5.95;;;19.80;89.00;;;;;;5050025;28;20213;-65
2021/07/23 02:19:55;;;;;;;10.02;6.10;;;19.80;89.10;;;;;;5050205;28;20214;-65
2021/07/23 02:22:24;;;;;;;8.90;5.85;;;19.80;89.00;;;;;;5047306;28;20229;-65
2021/07/23 02:24:52;;;;;;;10.00;6.30;;;19.80;89.00;;;;;;5050857;28;20209;-65
2021/07/23 02:27:20;;;;;;;12.77;6.55;;;19.80;89.00;;;;;;5060844;28;20217;-68
2021/07/23 02:29:54;;;;;;;12.80;6.15;;;19.80;89.10;;;;;;5046209;28;20573;-66
2021/07/23 02:32:25;;;;;;;9.68;6.22;;;19.80;89.10;;;;;;5060748;28;20647;-66
2021/07/23 02:34:52;;;;;;;12.63;6.18;;;19.80;89.10;;;;;;5047229;28;20229;-65
2021/07/23 02:37:19;;;;;;;11.25;6.72;;;19.80;89.20;;;;;;5061864;28;20198;-66
2021/07/23 02:39:46;;;;;;;11.80;7.20;;;19.80;89.20;;;;;;5065495;28;20263;-65
2021/07/23 02:42:13;;;;;;;13.27;8.18;;;19.80;89.30;;;;;;5063721;28;20599;-65
2021/07/23 02:44:46;;;;;;;11.65;7.75;;;19.80;89.30;;;;;;5065966;28;20209;-66
2021/07/23 02:47:13;;;;;;;14.95;7.85;;;19.70;89.30;;;;;;5061035;28;20199;-66
2021/07/23 02:49:40;;;;;;;15.52;7.93;;;19.80;89.50;;;;;;5057682;28;20203;-66
2021/07/23 02:52:07;;;;;;;10.02;7.20;;;19.70;89.50;;;;;;5048197;28;20739;-66
2021/07/23 02:54:38;;;;;;;10.82;7.40;;;19.80;89.60;;;;;;5046710;28;20211;-65
2021/07/23 02:57:05;;;;;;;12.80;7.63;;;19.80;89.80;;;;;;5067000;28;20302;-66
2021/07/23 02:59:39;;;;;;;10.18;7.25;;;19.70;89.80;;;;;;5045702;28;20213;-66
2021/07/23 03:02:10;;;;;;;10.00;7.28;;;19.70;89.80;;;;;;5047412;28;22062;-66
2021/07/23 03:04:38;;;;;;;11.52;6.82;;;19.70;89.90;;;;;;5046920;28;20302;-65
2021/07/23 03:07:05;;;;;;;11.35;6.93;;;19.70;90.00;;;;;;5047926;28;20206;-66
2021/07/23 03:09:33;;;;;;;9.23;6.82;;;19.70;90.00;;;;;;5047878;28;20206;-64
2021/07/23 03:12:02;;;;;;;13.90;7.13;;;19.70;90.10;;;;;;5046588;28;20742;-65
2021/07/23 03:14:33;;;;;;;11.43;7.30;;;19.70;90.10;;;;;;5047363;28;20687;-65
2021/07/23 03:17:08;;;;;;;12.77;7.55;;;19.70;90.10;;;;;;5064882;28;20293;-66
2021/07/23 03:19:37;;;;;;;13.85;7.75;;;19.70;90.20;;;;;;5049373;28;20671;-65
2021/07/23 03:22:04;;;;;;;10.50;7.05;;;19.70;90.20;;;;;;5065567;28;20865;-67
2021/07/23 03:24:34;;;;;;;11.48;6.45;;;19.70;90.20;;;;;;5047197;28;20569;-66
2021/07/23 03:27:02;;;;;;;14.23;7.22;;;19.70;90.30;;;;;;5047841;28;20209;-65
2021/07/23 03:29:31;;;;;;;10.25;6.65;;;19.70;90.30;;;;;;5049854;28;20207;-66
2021/07/23 03:31:58;;;;;;;10.65;7.13;;;19.70;90.30;;;;;;5046875;28;20565;-66
2021/07/23 03:34:31;;;;;;;13.30;7.80;;;19.70;90.30;;;;;;5048335;28;20202;-65
2021/07/23 03:37:07;;;;;;;9.40;7.13;;;19.70;90.30;;;;;;5048707;28;20220;-64
2021/07/23 03:39:47;;;;;;;15.52;7.80;;;19.70;90.40;;;;;;5048198;28;20211;-64
2021/07/23 03:42:18;;;;;;;9.90;7.50;;;19.70;90.30;;;;;;5048096;28;20231;-66
2021/07/23 03:44:57;;;;;;;11.13;7.47;;;19.70;90.30;;;;;;5045945;28;20205;-65
2021/07/23 03:47:27;;;;;;;11.93;7.38;;;19.70;90.30;;;;;;5048044;28;20199;-65
2021/07/23 03:49:55;;;;;;;13.98;7.90;;;19.70;90.40;;;;;;5048709;28;20206;-65
2021/07/23 03:52:23;;;;;;;12.45;7.53;;;19.70;90.40;;;;;;5051735;28;20205;-66
2021/07/23 03:55:12;;;;;;;14.88;7.68;;;19.80;90.40;;;;;;5065200;28;20293;-66
2021/07/23 03:57:41;;;;;;;12.18;7.50;;;19.70;90.40;;;;;;5068145;28;20590;-66
2021/07/23 04:00:09;;;;;;;10.07;7.40;;;19.70;90.40;;;;;;5065770;28;20222;-66
2021/07/23 04:02:45;;;;;;;11.63;7.97;;;19.80;90.30;;;;;;5063710;28;20569;-67
2021/07/23 04:05:13;;;;;;;11.73;7.30;;;19.80;90.70;;;;;;5066166;28;20191;-67
2021/07/23 04:07:41;;;;;;;11.32;7.32;;;19.70;90.30;;;;;;5050074;28;20214;-66
2021/07/23 04:10:11;;;;;;;12.32;7.38;;;19.80;90.30;;;;;;5067599;28;20214;-65
2021/07/23 04:12:38;;;;;;;10.25;7.18;;;19.80;90.30;;;;;;5067641;28;20207;-66
2021/07/23 04:15:09;;;;;;;13.95;7.32;;;19.80;90.30;;;;;;5049037;28;20198;-66
2021/07/23 04:17:49;;;;;;;12.20;7.63;;;19.80;90.30;;;;;;5049801;28;20206;-66
2021/07/23 04:20:16;;;;;;;11.60;6.85;;;19.80;90.30;;;;;;5051513;28;20203;-65
2021/07/23 04:22:47;;;;;;;10.07;6.97;;;19.80;90.20;;;;;;5052301;28;20233;-66
2021/07/23 04:25:20;;;;;;;11.63;6.82;;;19.80;90.20;;;;;;5065343;28;20209;-65
2021/07/23 04:27:48;;;;;;;14.95;7.07;;;19.80;90.20;;;;;;5050923;28;20206;-65
2021/07/23 04:30:20;;;;;;;10.15;6.10;;;19.80;90.10;;;;;;5047726;28;20713;-66
2021/07/23 04:33:05;;;;;;;13.68;5.85;;;19.80;90.10;;;;;;5067578;28;20210;-65
2021/07/23 04:35:32;;;;;;;12.38;6.03;;;19.80;90.00;;;;;;5047057;28;20218;-65
2021/07/23 04:38:01;;;;;;;12.27;6.15;;;19.80;89.80;;;;;;5053281;28;20198;-67
2021/07/23 04:40:43;;;;;;;12.35;6.03;;;19.80;89.60;;;;;;5048934;28;20339;-66
2021/07/23 04:43:16;;;;;;;11.30;6.00;;;19.90;89.60;;;;;;5049748;28;20226;-66
2021/07/23 04:45:44;;;;;;;12.73;5.95;;;19.80;89.60;;;;;;5049139;28;20198;-66
2021/07/23 04:48:10;;;;;;;10.15;5.72;;;19.80;89.60;;;;;;5062453;28;20222;-65
2021/07/23 04:51:01;;;;;;;11.73;6.28;;;19.90;89.60;;;;;;5064805;28;20317;-67
2021/07/23 04:53:48;;;;;;;8.35;5.00;;;19.80;89.70;;;;;;5066733;28;20255;-66
2021/07/23 04:56:21;;;;;;;11.82;5.80;;;19.80;89.50;;;;;;5063704;28;20697;-65
2021/07/23 04:58:48;;;;;;;12.75;5.55;;;19.80;89.40;;;;;;5065801;28;20202;-65
2021/07/23 05:01:16;;;;;;;17.90;5.63;;;19.80;90.00;;;;;;5060969;28;20206;-66
2021/07/23 05:03:45;;;;;;;10.77;5.18;;;19.80;89.40;;;;;;5066190;28;20325;-65
2021/07/23 05:06:12;;;;;;;9.20;5.60;;;19.80;89.20;;;;;;5064537;28;20215;-66
2021/07/23 05:08:40;;;;;;;9.90;5.72;;;19.80;89.30;;;;;;5067283;28;20291;-64
2021/07/23 05:11:14;;;;;;;12.70;5.75;;;19.80;89.30;;;;;;5045118;28;20875;-67
2021/07/23 05:13:43;;;;;;;10.23;6.13;;;19.80;89.50;;;;;;5051813;28;20245;-67
2021/07/23 05:16:10;;;;;;;9.05;5.43;;;19.80;89.70;;;;;;5063437;28;20203;-65
2021/07/23 05:18:39;;;;;;;9.40;5.35;;;19.90;89.90;;;;;;5068073;28;20750;-66
2021/07/23 05:21:10;;;;;;;10.10;5.75;;;19.90;89.90;;;;;;5063067;28;20210;-65
2021/07/23 05:23:38;;;;;;;12.35;5.60;;;19.90;90.00;;;;;;5066210;28;20615;-67
2021/07/23 05:26:06;;;;;;;9.88;5.90;;;19.90;89.90;;;;;;5064663;28;20198;-66
2021/07/23 05:28:34;;;;;;;13.43;5.38;;;19.90;90.00;;;;;;5066353;28;20237;-67
2021/07/23 05:31:01;;;;;;;8.13;5.20;;;20.00;90.00;;;;;;5063892;28;20210;-67
2021/07/23 05:33:28;;;;;;;12.38;5.43;;;20.00;90.00;;;;;;5050082;28;20202;-65
2021/07/23 05:35:54;;;;;;;10.65;5.32;;;20.00;89.90;;;;;;5063735;28;20363;-65
2021/07/23 05:38:21;;;;;;;11.43;6.25;;;20.00;90.00;;;;;;5046962;28;20678;-70
2021/07/23 05:40:48;;;;;;;14.75;5.18;;;20.10;89.80;;;;;;5065017;28;20202;-68
2021/07/23 05:43:15;;;;;;;10.43;5.30;;;20.10;89.60;;;;;;5059818;28;20225;-68
2021/07/23 05:45:43;;;;;;;8.32;5.38;;;20.10;89.30;;;;;;5063032;28;20211;-68
2021/07/23 05:48:10;;;;;;;8.95;4.85;;;20.10;88.80;;;;;;5062715;28;20256;-67
2021/07/23 05:50:37;;;;;;;10.32;5.15;;;20.10;88.20;;;;;;5049894;28;20272;-70
2021/07/23 05:53:04;;;;;;;8.35;5.05;;;20.20;87.60;;;;;;5065980;28;20656;-68
2021/07/23 05:55:31;;;;;;;11.27;5.45;;;20.20;87.20;;;;;;5062345;28;20684;-67
2021/07/23 05:57:58;;;;;;;14.77;5.00;;;20.20;86.90;;;;;;5061656;28;20572;-66
2021/07/23 06:00:25;;;;;;;9.98;5.47;;;20.20;86.50;;;;;;5058737;28;20202;-69
2021/07/23 06:02:54;;;;;;;8.20;5.75;;;20.20;86.30;;;;;;5066458;28;20210;-69
2021/07/23 06:05:21;;;;;;;10.25;5.93;;;20.20;85.90;;;;;;5062879;28;20202;-68
2021/07/23 06:07:47;;;;;;;11.32;5.82;;;20.20;85.90;;;;;;5066111;28;20209;-67
2021/07/23 06:10:14;;;;;;;7.70;5.45;;;20.20;85.80;;;;;;5065056;28;20214;-66
2021/07/23 06:12:41;;;;;;;10.18;5.55;;;20.20;85.70;;;;;;5062966;28;20244;-66
2021/07/23 06:15:09;;;;;;;13.15;5.65;;;20.20;85.70;;;;;;5058546;28;20209;-66
2021/07/23 06:17:36;;;;;;;9.07;6.30;;;20.30;85.70;;;;;;5063600;28;20207;-67
2021/07/23 06:20:05;;;;;;;10.35;5.93;;;20.30;85.80;;;;;;5063355;28;20655;-66
2021/07/23 06:22:32;;;;;;;9.43;5.38;;;20.30;85.70;;;;;;5062329;28;20194;-66
2021/07/23 06:24:59;;;;;;;15.48;6.60;;;20.40;85.60;;;;;;5063287;28;20203;-67
2021/07/23 06:27:26;;;;;;;11.57;6.40;;;20.40;85.60;;;;;;5065803;28;20194;-67
2021/07/23 06:29:55;;;;;;;10.93;6.28;;;20.40;85.60;;;;;;5063356;28;20285;-67
2021/07/23 06:32:26;;;;;;;8.55;5.82;;;20.50;85.40;;;;;;5048188;28;20567;-72
2021/07/23 06:34:53;;;;;;;10.40;6.00;;;20.50;85.10;;;;;;5061247;28;20287;-73
2021/07/23 06:37:21;;;;;;;9.63;5.97;;;20.50;85.00;;;;;;5062752;28;20883;-73
2021/07/23 06:39:48;;;;;;;14.35;7.35;;;20.50;85.00;;;;;;5044649;28;20225;-71
2021/07/23 06:42:16;;;;;;;10.02;6.32;;;20.60;84.90;;;;;;5061243;28;20639;-70
2021/07/23 06:44:43;;;;;;;9.60;5.55;;;20.60;84.80;;;;;;5061623;28;20218;-69
2021/07/23 06:47:10;;;;;;;11.90;6.20;;;20.60;84.50;;;;;;5043233;28;20210;-71
2021/07/23 06:49:37;;;;;;;10.75;5.90;;;20.70;84.40;;;;;;5063231;28;20214;-71
2021/07/23 06:52:04;;;;;;;12.48;6.07;;;20.70;83.90;;;;;;5062539;28;20203;-71
2021/07/23 06:54:32;;;;;;;10.27;5.22;;;20.70;83.50;;;;;;5056979;28;20714;-70
2021/07/23 06:57:03;;;;;;;8.18;5.32;;;20.70;82.80;;;;;;5042767;28;20565;-72
2021/07/23 06:59:31;;;;;;;8.43;5.90;;;20.80;82.40;;;;;;5063444;28;20248;-70
2021/07/23 07:01:59;;;;;;;9.75;5.97;;;20.80;82.30;;;;;;5042672;28;20260;-70
2021/07/23 07:04:27;;;;;;;10.25;6.35;;;20.80;82.20;;;;;;5047670;28;20245;-68
2021/07/23 07:06:57;;;;;;;14.82;6.68;;;20.80;82.20;;;;;;5063954;28;20206;-68
2021/07/23 07:09:24;;;;;;;9.18;6.15;;;20.90;82.00;;;;;;5063734;28;20203;-70
2021/07/23 07:11:53;;;;;;;8.00;5.32;;;20.90;81.60;;;;;;5065576;28;20198;-70
2021/07/23 07:14:22;;;;;;;8.52;5.18;;;20.90;81.10;;;;;;5063618;28;20737;-70
2021/07/23 07:16:49;;;;;;;8.63;5.63;;;20.90;80.80;;;;;;5064783;28;20217;-69
2021/07/23 07:19:16;;;;;;;10.80;5.63;;;21.00;80.40;;;;;;5064681;28;20671;-71
2021/07/23 07:21:48;;;;;;;9.50;6.18;;;21.00;80.30;;;;;;5066249;28;20198;-71
2021/07/23 07:24:15;;;;;;;8.80;5.60;;;21.00;80.30;;;;;;5064056;28;20698;-69
2021/07/23 07:26:42;;;;;;;8.90;5.50;;;21.10;80.20;;;;;;5071062;28;20202;-70
2021/07/23 07:29:11;;;;;;;12.10;5.15;;;21.20;80.00;;;;;;5068211;28;20206;-72
2021/07/23 07:31:38;;;;;;;10.32;5.75;;;21.20;79.60;;;;;;5068936;28;20548;-74
2021/07/23 07:34:05;;;;;;;10.45;5.70;;;21.30;79.30;;;;;;5066922;28;20260;-73
2021/07/23 07:36:32;;;;;;;7.97;5.10;;;21.40;79.20;;;;;;5067412;28;20691;-73
2021/07/23 07:38:59;;;;;;;9.73;5.15;;;21.40;78.80;;;;;;5062486;28;20580;-72
2021/07/23 07:41:27;;;;;;;7.35;5.70;;;21.50;78.50;;;;;;5063193;28;20281;-71
2021/07/23 07:43:54;;;;;;;12.43;5.78;;;21.60;78.40;;;;;;5065476;28;20679;-72
2021/07/23 07:46:22;;;;;;;8.82;5.18;;;21.60;78.10;;;;;;5068268;28;20204;-74
2021/07/23 07:48:49;;;;;;;11.48;5.28;;;21.70;77.80;;;;;;5066202;28;20569;-72
2021/07/23 07:51:17;;;;;;;9.35;5.10;;;21.70;77.50;;;;;;5069938;28;20206;-71
2021/07/23 07:53:44;;;;;;;10.88;5.60;;;21.70;77.10;;;;;;5067897;28;20658;-70
2021/07/23 07:56:12;;;;;;;6.82;4.85;;;21.80;77.10;;;;;;5069796;28;20203;-72
2021/07/23 07:58:39;;;;;;;9.63;5.72;;;21.80;76.90;;;;;;5066542;28;20217;-70
2021/07/23 08:01:06;;;;;;;7.90;5.10;;;21.80;76.80;;;;;;5064760;28;20564;-71
2021/07/23 08:03:38;;;;;;;9.30;5.00;;;21.90;76.80;;;;;;5066550;28;20230;-72
2021/07/23 08:06:06;;;;;;;11.70;5.18;;;21.90;76.40;;;;;;5067985;28;20203;-71
2021/07/23 08:08:33;;;;;;;9.75;4.80;;;21.90;76.00;;;;;;5065435;28;20203;-71
2021/07/23 08:11:00;;;;;;;8.60;4.85;;;21.90;75.80;;;;;;5047921;28;20226;-72
2021/07/23 08:13:27;;;;;;;8.10;4.88;;;22.00;75.60;;;;;;5066864;28;20206;-72
2021/07/23 08:15:56;;;;;;;7.97;4.60;;;22.00;75.30;;;;;;5066900;28;20202;-71
2021/07/23 08:18:23;;;;;;;7.43;5.05;;;22.00;75.10;;;;;;5066678;28;20206;-73
2021/07/23 08:20:52;;;;;;;10.48;5.15;;;22.00;74.90;;;;;;5063309;28;20635;-72
2021/07/23 08:23:19;;;;;;;10.70;4.95;;;22.00;74.90;;;;;;5065747;28;20222;-71
2021/07/23 08:25:46;;;;;;;9.05;4.97;;;22.00;74.70;;;;;;5068148;28;20239;-72
2021/07/23 08:28:13;;;;;;;7.85;4.47;;;22.10;74.50;;;;;;5061302;28;20253;-73
2021/07/23 08:30:40;;;;;;;7.63;4.70;;;22.10;74.30;;;;;;5065635;28;20552;-70
2021/07/23 08:33:07;;;;;;;7.32;5.13;;;22.10;74.00;;;;;;5061175;28;20203;-75
2021/07/23 08:35:35;;;;;;;9.73;5.28;;;22.10;73.90;;;;;;5066087;28;20289;-73
2021/07/23 08:38:03;;;;;;;7.07;4.88;;;22.10;73.90;;;;;;5049411;28;20206;-72
2021/07/23 08:40:30;;;;;;;11.07;6.20;;;22.20;73.80;;;;;;5068306;28;20753;-71
2021/07/23 08:42:57;;;;;;;8.18;5.18;;;22.20;73.50;;;;;;5065913;28;20240;-71
2021/07/23 08:45:24;;;;;;;8.15;4.90;;;22.20;73.20;;;;;;5069032;28;20222;-72
2021/07/23 08:47:52;;;;;;;6.80;4.65;;;22.20;73.10;;;;;;5068332;28;20281;-73
2021/07/23 08:50:19;;;;;;;9.02;5.50;;;22.30;72.90;;;;;;5067523;28;20214;-71
2021/07/23 08:52:48;;;;;;;8.85;5.65;;;22.30;72.80;;;;;;5068764;28;20252;-72
2021/07/23 08:55:18;;;;;;;10.35;5.25;;;22.30;72.80;;;;;;5064671;28;20209;-71
2021/07/23 08:57:46;;;;;;;6.95;4.70;;;22.30;72.80;;;;;;5066424;28;20206;-71
2021/07/23 09:00:15;;;;;;;9.65;6.05;;;22.30;72.80;;;;;;5064012;28;20538;-71
2021/07/23 09:02:56;;;;;;;13.05;5.97;;;22.40;72.80;;;;;;5063919;28;20202;-71
2021/07/23 09:05:25;;;;;;;10.25;6.53;;;22.40;72.70;;;;;;5067031;28;20229;-72
2021/07/23 09:07:52;;;;;;;10.35;6.90;;;22.40;72.90;;;;;;5068871;28;20206;-69
2021/07/23 09:10:25;;;;;;;13.50;6.07;;;22.40;73.00;;;;;;5067201;28;20256;-70
2021/07/23 09:12:54;;;;;;;9.27;5.28;;;22.50;73.00;;;;;;5067012;28;20195;-69
2021/07/23 09:15:25;;;;;;;9.85;6.60;;;22.50;73.00;;;;;;5062657;28;21390;-71
2021/07/23 09:17:53;;;;;;;10.18;6.00;;;22.50;73.00;;;;;;5064456;28;20214;-70
2021/07/23 09:20:26;;;;;;;7.80;6.00;;;22.60;72.90;;;;;;5065227;28;20210;-71
2021/07/23 09:22:54;;;;;;;13.90;6.30;;;22.60;72.80;;;;;;5067503;28;20202;-71
2021/07/23 09:25:37;;;;;;;11.13;7.05;;;22.70;72.80;;;;;;5063632;28;20210;-72
2021/07/23 09:28:23;;;;;;;13.15;6.78;;;22.70;72.50;;;;;;5065877;28;20210;-72
2021/07/23 09:30:51;;;;;;;8.20;6.15;;;22.70;72.40;;;;;;5065047;28;20730;-71
2021/07/23 09:33:25;;;;;;;9.75;6.47;;;22.70;72.40;;;;;;5064764;28;20206;-72
2021/07/23 09:35:53;;;;;;;11.80;7.00;;;22.80;72.40;;;;;;5066547;28;20223;-72
2021/07/23 09:38:22;;;;;;;11.45;7.18;;;22.80;72.20;;;;;;5047740;28;20301;-70
2021/07/23 09:40:52;;;;;;;9.00;6.35;;;22.90;72.30;;;;;;5064771;28;20923;-71
2021/07/23 09:43:35;;;;;;;13.13;7.35;;;22.90;72.10;;;;;;5067390;28;20206;-69
2021/07/23 09:46:33;;;;;;;11.77;7.43;;;22.90;72.00;;;;;;5050176;28;20217;-69
2021/07/23 09:49:02;;;;;;;9.65;6.57;;;22.90;72.30;;;;;;5066099;28;20198;-70
2021/07/23 09:51:30;;;;;;;9.90;7.15;;;22.90;72.30;;;;;;5063272;28;20232;-69
2021/07/23 09:53:58;;;;;;;13.85;7.32;;;22.90;72.20;;;;;;5066039;28;20199;-69
2021/07/23 09:56:27;;;;;;;12.90;7.65;;;22.90;72.20;;;;;;5063827;28;20190;-69
2021/07/23 09:59:01;;;;;;;8.48;6.32;;;22.90;71.90;;;;;;5066070;28;20213;-68
2021/07/23 10:01:30;;;;;;;9.77;6.78;;;22.90;71.70;;;;;;5064124;28;20216;-70
2021/07/23 10:04:00;;;;;;;10.18;7.22;;;23.00;71.70;;;;;;5064724;28;20610;-69
2021/07/23 10:06:34;;;;;;;10.02;6.28;;;23.00;71.60;;;;;;5064682;28;20218;-69
2021/07/23 10:09:05;;;;;;;13.60;6.07;;;23.10;71.50;;;;;;5063217;28;20233;-70
2021/07/23 10:11:34;;;;;;;9.00;6.55;;;23.20;71.30;;;;;;5063165;28;20202;-69
2021/07/23 10:14:03;;;;;;;11.88;6.38;;;23.20;71.10;;;;;;5063346;28;20210;-69
2021/07/23 10:16:32;;;;;;;10.05;7.20;;;23.30;70.90;;;;;;5063120;28;20322;-70
2021/07/23 10:19:01;;;;;;;10.80;7.20;;;23.30;70.80;;;;;;5062724;28;20206;-71
2021/07/23 10:21:27;;;;;;;13.02;7.53;;;23.40;70.80;;;;;;5065806;28;20215;-69
2021/07/23 10:23:55;;;;;;;11.35;7.75;;;23.50;70.80;;;;;;5063347;28;20210;-70
2021/07/23 10:26:27;;;;;;;13.93;7.95;;;23.50;70.70;;;;;;5060794;28;20658;-68
2021/07/23 10:29:01;;;;;;;11.77;7.13;;;23.60;70.60;;;;;;5063156;28;20579;-68
2021/07/23 10:31:44;;;;;;;10.13;7.30;;;23.60;70.70;;;;;;5065488;28;20221;-72
2021/07/23 10:34:28;;;;;;;15.20;8.35;;;23.60;70.70;;;;;;5064272;28;20257;-68
2021/07/23 10:36:55;;;;;;;12.68;8.40;;;23.60;70.50;;;;;;5044576;28;20786;-64
2021/07/23 10:39:23;;;;;;;16.02;8.98;;;23.50;70.30;;;;;;5063223;28;20210;-69
2021/07/23 10:42:29;;;;;;;14.23;10.15;;;23.50;70.40;;;;;;5067308;28;20202;-69
2021/07/23 10:44:57;;;;;;;12.85;8.73;;;23.40;70.50;;;;;;5060636;28;20686;-69
2021/07/23 10:47:51;;;;;;;13.85;9.52;;;23.40;70.70;;;;;;5059887;28;20210;-71
2021/07/23 10:50:49;;;;;;;13.77;9.48;;;23.40;70.80;;;;;;5065440;28;20202;-69
2021/07/23 10:53:35;;;;;;;11.85;9.10;;;23.30;70.90;;;;;;5004349;28;20232;-69
2021/07/23 10:56:02;;;;;;;13.38;9.70;;;23.30;71.20;;;;;;5059156;28;20228;-69
2021/07/23 10:58:33;;;;;;;12.82;9.65;;;23.40;71.30;;;;;;5065429;28;20513;-68
2021/07/23 11:01:02;;;;;;;13.00;9.65;;;23.40;71.20;;;;;;5061093;28;20281;-68
2021/07/23 11:03:49;;;;;;;18.98;10.43;;;23.40;71.00;;;;;;5064371;28;20229;-69
2021/07/23 11:06:17;;;;;;;15.30;10.82;;;23.40;70.90;;;;;;5064642;28;20210;-69
2021/07/23 11:08:51;;;;;;;26.60;12.45;;;23.40;71.10;;;;;;5048407;28;20292;-68
2021/07/23 11:11:19;;;;;;;14.40;11.57;;;23.40;71.10;;;;;;5061816;28;20209;-70
2021/07/23 11:13:47;;;;;;;19.20;12.80;;;23.40;71.10;;;;;;5066524;28;20203;-68
2021/07/23 11:16:16;;;;;;;15.15;11.60;;;23.30;71.10;;;;;;5065191;28;20186;-69
2021/07/23 11:18:54;;;;;;;13.85;10.45;;;23.40;71.30;;;;;;5067371;28;20221;-69
2021/07/23 11:21:23;;;;;;;25.63;11.20;;;23.40;71.30;;;;;;5064384;28;20654;-71
2021/07/23 11:23:50;;;;;;;15.68;11.45;;;23.40;71.10;;;;;;5050809;28;20199;-68
2021/07/23 11:26:25;;;;;;;14.68;11.38;;;23.40;70.90;;;;;;5064633;28;20222;-68
2021/07/23 11:28:53;;;;;;;16.90;11.52;;;23.40;70.80;;;;;;5066624;28;20677;-68
2021/07/23 11:31:29;;;;;;;19.00;11.65;;;23.50;70.90;;;;;;5064508;28;20526;-69
2021/07/23 11:33:57;;;;;;;16.73;11.70;;;23.50;70.90;;;;;;5066203;28;20198;-67
2021/07/23 11:36:35;;;;;;;20.33;12.18;;;23.50;70.90;;;;;;5060805;28;20226;-67
2021/07/23 11:39:03;;;;;;;16.50;12.18;;;23.50;70.90;;;;;;5064339;28;20229;-67
2021/07/23 11:41:30;;;;;;;14.13;11.38;;;23.50;71.10;;;;;;5066496;28;20674;-68
2021/07/23 11:44:09;;;;;;;18.58;11.52;;;23.50;71.10;;;;;;5066528;28;20206;-69
2021/07/23 11:46:38;;;;;;;15.43;10.35;;;23.50;71.00;;;;;;5050440;28;20207;-68
2021/07/23 11:49:06;;;;;;;12.93;10.27;;;23.50;70.90;;;;;;5065448;28;20286;-67
2021/07/23 11:51:42;;;;;;;18.02;10.90;;;23.50;71.00;;;;;;5065358;28;20260;-67
2021/07/23 11:54:09;;;;;;;15.60;10.68;;;23.50;70.90;;;;;;5063012;28;20205;-67
2021/07/23 11:56:37;;;;;;;12.55;9.43;;;23.60;70.80;;;;;;5065342;28;20284;-67
2021/07/23 11:59:04;;;;;;;13.50;10.10;;;23.60;70.70;;;;;;5048307;28;20195;-65
2021/07/23 12:01:35;;;;;;;13.35;9.70;;;23.60;70.60;;;;;;5063023;28;20545;-67
2021/07/23 12:04:04;;;;;;;13.02;9.77;;;23.60;70.70;;;;;;5064681;28;20199;-67
2021/07/23 12:06:32;;;;;;;13.45;9.18;;;23.60;70.60;;;;;;5049084;28;20218;-68
2021/07/23 12:09:03;;;;;;;14.35;9.35;;;23.60;70.30;;;;;;5065227;28;20979;-67
2021/07/23 12:11:31;;;;;;;13.55;9.45;;;23.70;70.30;;;;;;5062367;28;20207;-70
2021/07/23 12:13:59;;;;;;;13.35;9.00;;;23.70;70.30;;;;;;5067861;28;20293;-68
2021/07/23 12:16:26;;;;;;;11.18;7.95;;;23.70;70.20;;;;;;5067371;28;20233;-67
2021/07/23 12:18:57;;;;;;;11.13;8.57;;;23.70;70.00;;;;;;5068662;28;20203;-69
2021/07/23 12:21:26;;;;;;;12.30;8.88;;;23.70;69.80;;;;;;5049922;28;20293;-68
2021/07/23 12:24:00;;;;;;;11.80;8.60;;;23.70;69.80;;;;;;5067951;28;20214;-69
2021/07/23 12:26:28;;;;;;;8.65;6.65;;;23.70;69.90;;;;;;5064052;28;20691;-68
2021/07/23 12:28:56;;;;;;;10.02;7.75;;;23.60;69.90;;;;;;5047917;28;20613;-68
2021/07/23 12:31:23;;;;;;;8.65;6.78;;;23.60;69.90;;;;;;5064665;28;20210;-68
2021/07/23 12:34:04;;;;;;;12.73;7.32;;;23.60;70.00;;;;;;5067471;28;20212;-71
2021/07/23 12:36:41;;;;;;;9.88;7.75;;;23.60;70.10;;;;;;5064570;28;20691;-69
2021/07/23 12:39:08;;;;;;;10.88;7.18;;;23.50;70.40;;;;;;5065329;28;20206;-70
2021/07/23 12:41:36;;;;;;;10.77;7.10;;;23.50;70.50;;;;;;5063353;28;20214;-72
2021/07/23 12:44:07;;;;;;;11.82;7.53;;;23.50;70.60;;;;;;5063155;28;20218;-70
2021/07/23 12:46:35;;;;;;;11.32;6.97;;;23.50;70.50;;;;;;5064681;28;20670;-72
2021/07/23 12:49:09;;;;;;;10.63;6.88;;;23.50;70.60;;;;;;5064540;28;20237;-73
2021/07/23 12:51:36;;;;;;;10.90;7.45;;;23.50;70.60;;;;;;5067679;28;20210;-71